Time;durP1;ratioP1;P1;durP2;ratioP2;P2;SDS_P1;SDS_P2;PMS_P1;PMS_P2;Temp;Humidity;BMP_temperature;BMP_pressure;BME280_temperature;BME280_humidity;BME280_pressure;Samples;Min_cycle;Max_cycle;Signal;HPM_P1;HPM_P2
2021/04/12 00:01:21;;;;;;;8.60;3.10;;;0.80;93.40;;;;;;5029824;28;20045;-73
2021/04/12 00:03:52;;;;;;;8.00;2.67;;;0.80;93.50;;;;;;5035520;28;20431;-73
2021/04/12 00:06:25;;;;;;;8.73;3.23;;;0.70;93.60;;;;;;5021514;28;20044;-73
2021/04/12 00:09:04;;;;;;;13.27;4.10;;;0.70;93.60;;;;;;5041268;28;20044;-73
2021/04/12 00:11:47;;;;;;;10.57;3.97;;;0.70;93.80;;;;;;5018337;28;20044;-72
2021/04/12 00:14:47;;;;;;;11.43;4.70;;;0.70;93.80;;;;;;5035807;28;20489;-73
2021/04/12 00:17:32;;;;;;;12.47;6.30;;;0.60;93.70;;;;;;5024125;28;20056;-72
2021/04/12 00:20:29;;;;;;;14.80;5.03;;;0.60;93.80;;;;;;5026086;28;20044;-73
2021/04/12 00:23:18;;;;;;;8.70;4.03;;;0.60;93.90;;;;;;5025586;28;20041;-72
2021/04/12 00:26:01;;;;;;;9.63;4.60;;;0.50;93.80;;;;;;5024972;28;20064;-73
2021/04/12 00:28:38;;;;;;;7.07;3.53;;;0.50;93.80;;;;;;5017655;28;20093;-73
2021/04/12 00:31:20;;;;;;;6.80;3.50;;;0.50;93.80;;;;;;5021070;28;20033;-73
2021/04/12 00:33:54;;;;;;;6.97;3.63;;;0.50;94.00;;;;;;5026207;28;20037;-73
2021/04/12 00:36:28;;;;;;;9.10;3.40;;;0.60;94.20;;;;;;5028999;28;20037;-73
2021/04/12 00:39:36;;;;;;;6.33;3.73;;;0.60;94.30;;;;;;5017361;28;21234;-72
2021/04/12 00:42:33;;;;;;;8.10;3.23;;;0.60;94.30;;;;;;5031892;28;20104;-72
2021/04/12 00:45:13;;;;;;;10.40;3.80;;;0.70;94.30;;;;;;5035756;28;20387;-73
2021/04/12 00:47:52;;;;;;;;;;;0.70;94.30;;;;;;5036952;28;20048;-73
2021/04/12 00:50:55;;;;;;;10.10;3.20;;;0.70;94.20;;;;;;5025682;28;19929;-72
2021/04/12 00:53:49;;;;;;;10.77;3.53;;;0.70;94.20;;;;;;5038411;28;20048;-72
2021/04/12 00:56:22;;;;;;;13.33;4.17;;;0.60;94.10;;;;;;5055000;28;20045;-72
2021/04/12 00:58:55;;;;;;;11.20;3.80;;;0.60;94.10;;;;;;5037577;28;20557;-72
2021/04/12 01:01:47;;;;;;;8.37;3.67;;;0.50;94.20;;;;;;5021842;28;20072;-72
2021/04/12 01:04:38;;;;;;;7.43;3.67;;;0.50;94.20;;;;;;5013583;28;20505;-72
2021/04/12 01:07:47;;;;;;;7.97;3.30;;;0.50;94.20;;;;;;5021229;28;20042;-72
2021/04/12 01:10:45;;;;;;;10.47;3.87;;;0.40;94.30;;;;;;4997875;28;20065;-72
2021/04/12 01:13:20;;;;;;;7.10;3.10;;;0.40;94.20;;;;;;5020008;28;20335;-72
2021/04/12 01:16:15;;;;;;;5.40;3.17;;;0.40;94.20;;;;;;5018635;28;20489;-72
2021/04/12 01:19:31;;;;;;;7.60;3.37;;;0.40;94.30;;;;;;5024148;28;20048;-72
2021/04/12 01:22:16;;;;;;;7.40;3.10;;;0.30;94.30;;;;;;5011024;28;20099;-72
2021/04/12 01:25:00;;;;;;;7.33;2.70;;;0.30;94.30;;;;;;5014498;28;20327;-71
2021/04/12 01:27:50;;;;;;;5.33;2.87;;;0.30;94.40;;;;;;5016972;28;20175;-72
2021/04/12 01:30:24;;;;;;;10.38;3.40;;;0.30;94.40;;;;;;5011770;28;20095;-72
2021/04/12 01:33:04;;;;;;;8.60;3.53;;;0.20;94.40;;;;;;5021555;28;20064;-72
2021/04/12 01:35:38;;;;;;;6.90;2.80;;;0.20;94.50;;;;;;5017197;28;20104;-74
2021/04/12 01:38:26;;;;;;;9.30;3.70;;;0.20;94.60;;;;;;4991252;28;20496;-72
2021/04/12 01:41:11;;;;;;;6.03;2.70;;;0.10;94.70;;;;;;5003291;28;20053;-72
2021/04/12 01:44:22;;;;;;;7.00;3.13;;;0.10;94.60;;;;;;5012452;28;20052;-71
2021/04/12 01:47:19;;;;;;;7.68;2.72;;;0.10;94.70;;;;;;5004743;28;20121;-72
2021/04/12 01:50:04;;;;;;;8.00;3.07;;;0.10;94.50;;;;;;5018830;28;20041;-72
2021/04/12 01:52:42;;;;;;;9.10;3.10;;;0.10;94.60;;;;;;5008076;28;20042;-72
2021/04/12 01:55:14;;;;;;;5.00;2.63;;;0.10;94.60;;;;;;5021891;28;20045;-72
2021/04/12 01:57:58;;;;;;;5.40;2.87;;;0.10;94.60;;;;;;5015272;28;20048;-72
2021/04/12 02:00:51;;;;;;;6.07;2.77;;;0.10;94.50;;;;;;5009772;28;20223;-72
2021/04/12 02:03:17;;;;;;;5.87;2.67;;;0.00;94.60;;;;;;5021405;28;20045;-72
2021/04/12 02:06:01;;;;;;;9.33;3.20;;;0.00;94.50;;;;;;5026555;28;20112;-72
2021/04/12 02:08:57;;;;;;;10.47;3.73;;;0.00;94.40;;;;;;5013274;28;20298;-72
2021/04/12 02:11:32;;;;;;;6.00;2.67;;;0.00;94.40;;;;;;5006638;28;20053;-72
2021/04/12 02:14:23;;;;;;;7.50;3.37;;;-0.10;94.40;;;;;;5017680;28;20054;-72
2021/04/12 02:16:55;;;;;;;11.10;3.80;;;-0.10;94.40;;;;;;5019555;28;20124;-72
2021/04/12 02:20:01;;;;;;;9.53;4.10;;;-0.20;94.40;;;;;;5018107;28;20045;-74
2021/04/12 02:22:45;;;;;;;7.30;3.40;;;-0.20;94.60;;;;;;5005870;28;20046;-74
2021/04/12 02:25:32;;;;;;;14.33;5.53;;;-0.20;94.60;;;;;;5005009;28;20095;-74
2021/04/12 02:28:31;;;;;;;12.27;5.80;;;-0.20;94.50;;;;;;5006779;28;20128;-74
2021/04/12 02:31:21;;;;;;;14.30;6.53;;;-0.20;94.80;;;;;;5016475;28;20050;-72
2021/04/12 02:33:59;;;;;;;8.23;4.90;;;-0.20;94.80;;;;;;5019176;28;20121;-72
2021/04/12 02:36:44;;;;;;;8.20;5.10;;;-0.20;94.80;;;;;;5026928;28;20316;-73
2021/04/12 02:39:16;;;;;;;6.90;4.37;;;-0.20;94.70;;;;;;5016195;28;20117;-72
2021/04/12 02:41:53;;;;;;;11.77;4.60;;;-0.20;94.70;;;;;;5010157;28;20049;-72
2021/04/12 02:45:04;;;;;;;7.03;3.70;;;-0.20;94.70;;;;;;5009393;28;20046;-72
2021/04/12 02:48:08;;;;;;;7.40;4.07;;;-0.20;94.80;;;;;;5003889;28;20077;-73
2021/04/12 02:50:59;;;;;;;9.80;4.00;;;-0.30;94.60;;;;;;5005977;28;20041;-73
2021/04/12 02:53:46;;;;;;;11.27;3.92;;;-0.30;94.80;;;;;;5005104;28;20216;-73
2021/04/12 02:56:49;;;;;;;8.00;3.60;;;-0.30;94.80;;;;;;5014363;28;20049;-73
2021/04/12 02:59:24;;;;;;;7.60;3.83;;;-0.30;94.70;;;;;;5012404;28;20038;-73
2021/04/12 03:02:15;;;;;;;9.10;3.83;;;-0.30;94.80;;;;;;5014137;28;20044;-73
2021/04/12 03:04:50;;;;;;;9.33;4.10;;;-0.40;94.60;;;;;;5026635;28;20475;-74
2021/04/12 03:07:28;;;;;;;11.33;4.27;;;-0.40;94.60;;;;;;5026268;28;20064;-74
2021/04/12 03:10:47;;;;;;;12.10;3.83;;;-0.40;94.70;;;;;;5042998;28;20047;-73
2021/04/12 03:13:47;;;;;;;10.83;4.27;;;-0.40;94.80;;;;;;4984816;28;20038;-74
2021/04/12 03:16:16;;;;;;;8.15;3.15;;;-0.50;94.80;;;;;;5025800;28;20391;-74
2021/04/12 03:18:59;;;;;;;8.53;4.33;;;-0.50;94.70;;;;;;5032092;28;20037;-74
2021/04/12 03:21:50;;;;;;;11.93;4.70;;;-0.50;94.70;;;;;;5027482;28;20037;-74
2021/04/12 03:24:24;;;;;;;10.07;4.03;;;-0.60;94.90;;;;;;5011378;28;20081;-74
2021/04/12 03:27:04;;;;;;;8.23;4.20;;;-0.60;95.00;;;;;;5034340;28;20037;-75
2021/04/12 03:29:51;;;;;;;9.75;4.15;;;-0.50;95.10;;;;;;5028425;28;20049;-75
2021/04/12 03:32:38;;;;;;;7.83;3.00;;;-0.50;95.10;;;;;;5044889;28;20091;-75
2021/04/12 03:35:09;;;;;;;12.27;4.37;;;-0.50;95.00;;;;;;5043374;28;20045;-71
2021/04/12 03:38:09;;;;;;;8.88;3.80;;;-0.40;95.00;;;;;;5048418;28;20061;-71
2021/04/12 03:40:43;;;;;;;6.15;3.30;;;-0.50;95.00;;;;;;4973144;28;20088;-71
2021/04/12 03:43:22;;;;;;;8.93;3.83;;;-0.40;95.00;;;;;;5045899;28;20044;-71
2021/04/12 03:46:00;;;;;;;7.40;3.20;;;-0.40;95.10;;;;;;5030934;28;20055;-71
2021/04/12 03:48:41;;;;;;;6.03;2.53;;;-0.40;95.20;;;;;;5039170;28;20040;-71
2021/04/12 03:51:49;;;;;;;8.00;3.43;;;-0.40;95.10;;;;;;5024549;28;20451;-74
2021/04/12 03:54:32;;;;;;;7.93;3.63;;;-0.40;95.20;;;;;;5027097;28;20568;-74
2021/04/12 03:57:25;;;;;;;10.77;3.23;;;-0.30;95.20;;;;;;5043827;28;20044;-74
2021/04/12 04:00:13;;;;;;;6.83;3.20;;;-0.30;95.30;;;;;;5034630;28;20048;-74
2021/04/12 04:03:16;;;;;;;6.13;2.90;;;-0.30;95.20;;;;;;5029504;28;20041;-74
2021/04/12 04:06:02;;;;;;;11.53;4.43;;;-0.30;95.20;;;;;;5037856;28;20495;-74
2021/04/12 04:08:53;;;;;;;11.73;3.70;;;-0.40;95.10;;;;;;4988227;28;20110;-74
2021/04/12 04:11:44;;;;;;;9.25;3.22;;;-0.30;95.30;;;;;;5019337;28;20090;-74
2021/04/12 04:14:55;;;;;;;7.50;3.20;;;-0.30;95.30;;;;;;5018901;28;20049;-71
2021/04/12 04:17:41;;;;;;;;;;;-0.30;95.30;;;;;;5037892;28;20067;-71
2021/04/12 04:20:09;;;;;;;6.30;3.13;;;-0.30;95.40;;;;;;5016485;28;20385;-71
2021/04/12 04:23:13;;;;;;;10.67;3.03;;;-0.20;95.20;;;;;;5023291;28;20033;-72
2021/04/12 04:25:55;;;;;;;9.63;3.50;;;-0.20;95.30;;;;;;5036160;28;20037;-71
2021/04/12 04:28:39;;;;;;;6.73;3.53;;;-0.20;95.30;;;;;;5035273;28;20041;-71
2021/04/12 04:31:27;;;;;;;9.63;4.40;;;-0.10;95.30;;;;;;5033422;28;20048;-71
2021/04/12 04:34:20;;;;;;;7.70;3.77;;;0.00;95.40;;;;;;5023750;28;20430;-71
2021/04/12 04:37:17;;;;;;;6.87;3.63;;;-0.10;95.50;;;;;;5027126;28;20037;-71
2021/04/12 04:40:17;;;;;;;7.53;3.70;;;-0.20;95.40;;;;;;5028133;28;20033;-71
2021/04/12 04:43:04;;;;;;;6.63;3.40;;;-0.20;95.40;;;;;;5037702;28;20083;-71
2021/04/12 04:46:13;;;;;;;10.50;3.53;;;-0.20;95.50;;;;;;5035788;28;20060;-71
2021/04/12 04:48:56;;;;;;;9.10;4.10;;;-0.10;95.50;;;;;;5033124;28;20040;-71
2021/04/12 04:52:03;;;;;;;8.47;3.67;;;-0.10;95.70;;;;;;5042436;28;20044;-71
2021/04/12 04:55:04;;;;;;;7.83;3.63;;;0.00;95.70;;;;;;5028886;28;20072;-71
2021/04/12 04:57:51;;;;;;;;;;;0.00;95.70;;;;;;5023889;28;20049;-71
2021/04/12 05:00:20;;;;;;;8.00;3.50;;;0.10;95.70;;;;;;5019228;28;19925;-71
2021/04/12 05:03:25;;;;;;;7.30;3.23;;;0.10;95.70;;;;;;5040058;28;20044;-71
2021/04/12 05:06:02;;;;;;;7.20;3.87;;;0.30;95.90;;;;;;5006063;28;20057;-71
2021/04/12 05:08:52;;;;;;;8.50;3.70;;;0.20;95.70;;;;;;5010814;28;20033;-71
2021/04/12 05:11:24;;;;;;;7.03;3.92;;;0.20;95.60;;;;;;5038890;28;20108;-71
2021/04/12 05:14:16;;;;;;;7.03;3.00;;;0.20;95.50;;;;;;5043082;28;20178;-71
2021/04/12 05:17:19;;;;;;;9.63;4.40;;;0.20;95.80;;;;;;5003776;28;20068;-72
2021/04/12 05:20:06;;;;;;;7.80;4.30;;;0.20;95.70;;;;;;5036825;28;20411;-72
2021/04/12 05:22:41;;;;;;;7.33;4.17;;;0.20;95.70;;;;;;5028478;28;20124;-71
2021/04/12 05:25:16;;;;;;;8.70;3.70;;;0.20;95.70;;;;;;5021472;28;20789;-72
2021/04/12 05:27:57;;;;;;;7.93;3.63;;;0.30;95.70;;;;;;5035254;28;20183;-71
2021/04/12 05:30:32;;;;;;;;;;;0.20;95.80;;;;;;5038461;28;20061;-72
2021/04/12 05:33:16;;;;;;;7.57;3.37;;;0.30;96.00;;;;;;5032807;28;20177;-72
2021/04/12 05:35:48;;;;;;;9.77;3.47;;;0.30;95.80;;;;;;5036074;28;20060;-71
2021/04/12 05:38:43;;;;;;;5.87;3.47;;;0.40;95.70;;;;;;5032606;28;20037;-72
2021/04/12 05:41:20;;;;;;;6.10;3.33;;;0.50;95.70;;;;;;5028356;28;20071;-71
2021/04/12 05:44:05;;;;;;;8.37;3.63;;;0.50;95.70;;;;;;5035228;28;20045;-71
2021/04/12 05:47:12;;;;;;;6.73;3.47;;;0.60;95.80;;;;;;5036724;28;20033;-71
2021/04/12 05:50:00;;;;;;;9.27;2.97;;;0.70;95.80;;;;;;5032451;28;20037;-72
2021/04/12 05:53:03;;;;;;;8.60;3.17;;;0.70;95.80;;;;;;5020298;28;20409;-72
2021/04/12 05:55:48;;;;;;;7.50;3.67;;;0.80;95.70;;;;;;5027999;28;20563;-72
2021/04/12 05:58:31;;;;;;;9.43;3.73;;;0.80;95.60;;;;;;5037508;28;20028;-72
2021/04/12 06:01:18;;;;;;;8.57;3.70;;;0.90;95.70;;;;;;5033276;28;20422;-72
2021/04/12 06:04:12;;;;;;;6.10;3.40;;;0.90;95.60;;;;;;5030085;28;20051;-71
2021/04/12 06:06:50;;;;;;;7.40;3.33;;;1.00;95.60;;;;;;5022600;28;20090;-72
2021/04/12 06:09:34;;;;;;;7.30;3.43;;;1.00;95.50;;;;;;5038583;28;20086;-72
2021/04/12 06:12:54;;;;;;;9.80;3.23;;;1.10;95.60;;;;;;5040748;28;20041;-72
2021/04/12 06:15:48;;;;;;;8.20;3.08;;;1.20;95.60;;;;;;4985345;28;20423;-71
2021/04/12 06:18:45;;;;;;;5.33;2.90;;;1.30;95.50;;;;;;5014216;28;20060;-71
2021/04/12 06:21:42;;;;;;;5.40;2.77;;;1.30;95.50;;;;;;5029591;28;20037;-72
2021/04/12 06:24:26;;;;;;;4.97;3.23;;;1.40;95.40;;;;;;5039773;28;20044;-74
2021/04/12 06:27:23;;;;;;;8.40;3.13;;;1.50;95.40;;;;;;5038662;28;20045;-74
2021/04/12 06:30:13;;;;;;;6.00;3.07;;;1.60;95.40;;;;;;5041801;28;20124;-74
2021/04/12 06:33:04;;;;;;;4.78;2.58;;;1.70;95.30;;;;;;5040950;28;20036;-74
2021/04/12 06:35:51;;;;;;;;;;;1.80;95.20;;;;;;5042424;28;20130;-74
2021/04/12 06:38:29;;;;;;;5.13;2.20;;;1.90;95.20;;;;;;5045484;28;19945;-73
2021/04/12 06:41:01;;;;;;;4.57;2.20;;;2.00;95.20;;;;;;5016611;28;20064;-73
2021/04/12 06:44:01;;;;;;;5.53;2.07;;;2.20;95.10;;;;;;5004323;28;20554;-73
2021/04/12 06:47:04;;;;;;;3.57;1.90;;;2.20;95.00;;;;;;5024623;28;20040;-72
2021/04/12 06:49:58;;;;;;;4.93;2.03;;;2.40;94.80;;;;;;5040538;28;20144;-72
2021/04/12 06:52:45;;;;;;;6.45;2.05;;;2.50;94.80;;;;;;5041904;28;20037;-72
2021/04/12 06:55:20;;;;;;;6.80;2.33;;;2.60;94.70;;;;;;5041463;28;20045;-72
2021/04/12 06:58:23;;;;;;;6.27;2.27;;;2.70;94.60;;;;;;5026684;28;20045;-71
2021/04/12 07:01:27;;;;;;;8.37;2.30;;;2.80;94.50;;;;;;5040762;28;20049;-71
2021/04/12 07:04:17;;;;;;;4.27;2.43;;;2.90;94.40;;;;;;5045246;28;20033;-71
2021/04/12 07:07:21;;;;;;;4.03;1.80;;;3.00;94.20;;;;;;5030379;28;20045;-72
2021/04/12 07:10:09;;;;;;;6.80;2.30;;;3.10;94.10;;;;;;5026997;28;20041;-72
2021/04/12 07:12:47;;;;;;;3.53;1.37;;;3.30;93.90;;;;;;5036215;28;20488;-71
2021/04/12 07:15:46;;;;;;;4.83;2.00;;;3.40;93.70;;;;;;5022195;28;20041;-72
2021/04/12 07:18:41;;;;;;;6.07;1.50;;;3.60;93.60;;;;;;5028373;28;20048;-72
2021/04/12 07:21:43;;;;;;;2.33;1.50;;;3.80;93.30;;;;;;5041869;28;20183;-72
2021/04/12 07:24:46;;;;;;;3.43;1.90;;;4.00;92.70;;;;;;5033660;28;20033;-71
2021/04/12 07:27:34;;;;;;;4.40;1.47;;;4.20;92.50;;;;;;5044049;28;20045;-72
2021/04/12 07:30:12;;;;;;;4.03;1.70;;;4.30;92.00;;;;;;5038765;28;20040;-72
2021/04/12 07:33:17;;;;;;;5.60;1.70;;;4.50;91.80;;;;;;5042772;28;20061;-71
2021/04/12 07:36:05;;;;;;;5.43;1.50;;;4.60;91.70;;;;;;5038504;28;20068;-72
2021/04/12 07:38:59;;;;;;;5.30;1.50;;;4.80;91.50;;;;;;5022824;28;20038;-72
2021/04/12 07:42:02;;;;;;;5.67;1.90;;;4.90;91.00;;;;;;5032660;28;20029;-71
2021/04/12 07:44:46;;;;;;;5.27;1.73;;;5.10;90.90;;;;;;5025192;28;20053;-72
2021/04/12 07:47:50;;;;;;;3.57;0.90;;;5.30;90.20;;;;;;5040071;28;20045;-73
2021/04/12 07:50:41;;;;;;;3.27;1.43;;;5.40;89.30;;;;;;5039188;28;20063;-73
2021/04/12 07:53:37;;;;;;;4.82;1.02;;;5.60;88.20;;;;;;5035134;28;20044;-73
2021/04/12 07:56:41;;;;;;;7.10;1.10;;;5.80;87.00;;;;;;5037691;28;20121;-73
2021/04/12 07:59:37;;;;;;;5.63;1.07;;;5.90;84.20;;;;;;5036090;28;20056;-73
2021/04/12 08:02:29;;;;;;;5.97;0.80;;;6.00;83.60;;;;;;5033616;28;20033;-73
2021/04/12 08:05:46;;;;;;;4.03;0.70;;;6.20;84.50;;;;;;5022123;28;20037;-74
2021/04/12 08:08:20;;;;;;;7.43;1.00;;;6.30;80.70;;;;;;4989116;28;20060;-73
2021/04/12 08:11:14;;;;;;;8.77;1.10;;;6.30;82.00;;;;;;5033541;28;20145;-73
2021/04/12 08:14:11;;;;;;;4.97;1.03;;;6.30;78.10;;;;;;5043637;28;20045;-75
2021/04/12 08:16:56;;;;;;;4.53;1.00;;;6.40;78.90;;;;;;5042412;28;20043;-73
2021/04/12 08:20:13;;;;;;;6.37;1.50;;;6.60;80.20;;;;;;5030845;28;20029;-75
2021/04/12 08:23:12;;;;;;;5.70;0.83;;;6.80;79.20;;;;;;4984635;28;20072;-74
2021/04/12 08:25:47;;;;;;;4.60;0.90;;;6.90;77.80;;;;;;5036355;28;20380;-74
2021/04/12 08:28:21;;;;;;;5.13;0.83;;;7.10;76.50;;;;;;5028062;28;20029;-74
2021/04/12 08:31:23;;;;;;;11.87;2.43;;;7.40;74.80;;;;;;5040279;28;20120;-74
2021/04/12 08:34:07;;;;;;;4.17;0.63;;;7.40;74.50;;;;;;4997043;28;20053;-74
2021/04/12 08:37:23;;;;;;;3.50;0.80;;;7.10;72.40;;;;;;5041482;28;20037;-75
2021/04/12 08:40:02;;;;;;;4.30;0.60;;;6.90;71.10;;;;;;4946225;28;20054;-75
2021/04/12 08:42:45;;;;;;;2.10;0.60;;;6.80;72.10;;;;;;4963776;28;20139;-75
2021/04/12 08:45:51;;;;;;;4.43;0.73;;;6.90;68.90;;;;;;5008874;28;20053;-75
2021/04/12 08:48:22;;;;;;;2.13;0.60;;;7.10;70.70;;;;;;4999920;28;20080;-75
2021/04/12 08:51:27;;;;;;;3.33;0.70;;;7.10;68.30;;;;;;5041230;28;20082;-75
2021/04/12 08:54:15;;;;;;;4.43;0.70;;;7.20;70.10;;;;;;5033007;28;20134;-75
2021/04/12 08:56:54;;;;;;;3.20;0.60;;;7.40;69.80;;;;;;5021345;28;20064;-75
2021/04/12 08:59:41;;;;;;;4.90;0.50;;;7.50;68.90;;;;;;5039302;28;20090;-75
2021/04/12 09:02:26;;;;;;;2.03;0.60;;;7.70;63.70;;;;;;5038902;28;20045;-75
2021/04/12 09:04:59;;;;;;;2.40;0.60;;;7.60;62.40;;;;;;5024177;28;20068;-75
2021/04/12 09:08:04;;;;;;;4.20;0.60;;;7.60;67.20;;;;;;5022767;28;20033;-75
2021/04/12 09:10:43;;;;;;;7.07;0.60;;;7.60;64.40;;;;;;5036637;28;20036;-74
2021/04/12 09:13:42;;;;;;;3.60;0.60;;;7.50;58.00;;;;;;5041444;28;20041;-75
2021/04/12 09:16:40;;;;;;;2.87;0.40;;;7.60;60.10;;;;;;5022254;28;20041;-75
2021/04/12 09:19:44;;;;;;;4.53;0.60;;;7.60;60.50;;;;;;5038288;28;20435;-75
2021/04/12 09:23:07;;;;;;;2.77;0.40;;;7.70;64.80;;;;;;5037377;28;20076;-74
2021/04/12 09:25:51;;;;;;;5.03;0.70;;;7.80;64.30;;;;;;4992226;28;20206;-75
2021/04/12 09:28:28;;;;;;;2.90;0.70;;;7.70;64.80;;;;;;4990837;28;20061;-75
2021/04/12 09:31:18;;;;;;;3.03;0.70;;;7.80;68.00;;;;;;5027454;28;20122;-75
2021/04/12 09:33:44;;;;;;;3.55;0.80;;;7.50;68.70;;;;;;5036793;28;20115;-75
2021/04/12 09:36:49;;;;;;;3.43;0.70;;;7.00;69.20;;;;;;5041881;28;20484;-75
2021/04/12 09:39:42;;;;;;;4.97;0.70;;;6.70;71.20;;;;;;5037697;28;20479;-75
2021/04/12 09:42:08;;;;;;;4.13;0.53;;;6.50;73.60;;;;;;5043027;28;20044;-75
2021/04/12 09:45:15;;;;;;;3.43;0.60;;;6.60;73.40;;;;;;5019683;28;20041;-75
2021/04/12 09:48:09;;;;;;;3.27;0.63;;;6.60;72.90;;;;;;5025169;28;20427;-74
2021/04/12 09:51:16;;;;;;;3.57;0.50;;;6.40;71.90;;;;;;5032752;28;20080;-75
2021/04/12 09:54:08;;;;;;;2.70;0.60;;;6.10;73.20;;;;;;5037843;28;20048;-75
2021/04/12 09:56:52;;;;;;;3.40;0.40;;;5.90;72.30;;;;;;5011122;28;20499;-75
2021/04/12 09:59:56;;;;;;;1.60;0.40;;;5.80;73.30;;;;;;5041793;28;20049;-75
2021/04/12 10:02:57;;;;;;;1.60;0.50;;;5.90;74.00;;;;;;5040066;28;20511;-75
2021/04/12 10:05:47;;;;;;;4.05;0.63;;;6.10;75.00;;;;;;5038507;28;20147;-75
2021/04/12 10:08:29;;;;;;;1.85;0.40;;;6.50;75.40;;;;;;5032599;28;20029;-72
2021/04/12 10:11:04;;;;;;;1.77;0.40;;;6.90;69.90;;;;;;5019937;28;20045;-73
2021/04/12 10:13:48;;;;;;;5.40;0.60;;;7.10;72.60;;;;;;5030230;28;20040;-73
2021/04/12 10:16:22;;;;;;;5.00;0.60;;;7.20;68.80;;;;;;5021033;28;20257;-73
2021/04/12 10:19:06;;;;;;;2.40;0.50;;;7.20;68.00;;;;;;5038357;28;20041;-73
2021/04/12 10:21:49;;;;;;;2.83;0.50;;;7.10;64.90;;;;;;5019459;28;20045;-73
2021/04/12 10:24:27;;;;;;;1.70;0.40;;;7.10;62.10;;;;;;5036621;28;20037;-73
2021/04/12 10:26:55;;;;;;;1.08;0.30;;;7.20;62.00;;;;;;5031721;28;20095;-73
2021/04/12 10:29:44;;;;;;;2.67;0.47;;;7.50;60.60;;;;;;5039632;28;20496;-73
2021/04/12 10:32:26;;;;;;;4.10;0.73;;;7.70;61.20;;;;;;5018157;28;20061;-73
2021/04/12 10:35:15;;;;;;;3.20;0.63;;;7.90;63.20;;;;;;5023660;28;20537;-73
2021/04/12 10:37:53;;;;;;;3.80;0.57;;;7.90;62.90;;;;;;5035161;28;20472;-73
2021/04/12 10:40:32;;;;;;;2.20;0.50;;;7.80;60.00;;;;;;5013885;28;20036;-73
2021/04/12 10:43:06;;;;;;;2.63;0.57;;;8.00;60.70;;;;;;5030012;28;20352;-73
2021/04/12 10:45:41;;;;;;;5.00;0.70;;;8.30;60.30;;;;;;5030426;28;20052;-73
2021/04/12 10:48:24;;;;;;;3.93;0.83;;;8.20;62.20;;;;;;5032332;28;20116;-74
2021/04/12 10:51:15;;;;;;;2.07;0.60;;;8.20;60.90;;;;;;5036285;28;20068;-74
2021/04/12 10:54:39;;;;;;;3.03;0.60;;;7.90;66.50;;;;;;5034107;28;20532;-73
2021/04/12 10:57:18;;;;;;;1.70;0.53;;;7.40;72.00;;;;;;4957483;28;20100;-74
2021/04/12 11:00:05;;;;;;;2.53;0.53;;;6.90;71.40;;;;;;4977918;28;20043;-74
2021/04/12 11:02:57;;;;;;;1.37;0.30;;;6.70;73.20;;;;;;5015959;28;20049;-72
2021/04/12 11:05:27;;;;;;;0.63;0.30;;;6.60;74.30;;;;;;5018904;28;20083;-73
2021/04/12 11:08:20;;;;;;;0.50;0.20;;;6.20;75.10;;;;;;5038770;28;20037;-72
2021/04/12 11:11:14;;;;;;;1.77;0.40;;;5.80;78.30;;;;;;5017775;28;20038;-73
2021/04/12 11:14:09;;;;;;;2.03;0.30;;;5.30;81.30;;;;;;5044112;28;20033;-73
2021/04/12 11:17:07;;;;;;;1.47;0.40;;;4.90;84.10;;;;;;5028822;28;20456;-73
2021/04/12 11:20:04;;;;;;;3.40;0.40;;;4.80;86.50;;;;;;4992677;28;20566;-73
2021/04/12 11:22:41;;;;;;;2.40;0.60;;;5.00;87.50;;;;;;5023036;28;20050;-73
2021/04/12 11:25:11;;;;;;;3.70;0.53;;;5.50;87.30;;;;;;5023814;28;20369;-73
2021/04/12 11:28:15;;;;;;;1.73;0.40;;;5.80;85.50;;;;;;5040427;28;20037;-73
2021/04/12 11:31:07;;;;;;;3.60;0.50;;;6.30;85.00;;;;;;5020800;28;20130;-73
2021/04/12 11:33:51;;;;;;;2.57;0.40;;;6.40;79.70;;;;;;5025014;28;20045;-73
2021/04/12 11:36:17;;;;;;;1.90;0.30;;;6.50;79.00;;;;;;5036029;28;20386;-74
2021/04/12 11:39:11;;;;;;;4.93;0.47;;;6.40;78.10;;;;;;5025948;28;20135;-73
2021/04/12 11:41:37;;;;;;;3.47;0.70;;;6.50;77.60;;;;;;5020703;28;20041;-73
2021/04/12 11:44:15;;;;;;;2.60;0.50;;;6.60;79.30;;;;;;5039882;28;20071;-73
2021/04/12 11:46:41;;;;;;;2.47;0.73;;;6.80;79.80;;;;;;5040308;28;20114;-76
2021/04/12 11:49:26;;;;;;;3.10;0.40;;;7.10;76.20;;;;;;5017114;28;20522;-76
2021/04/12 11:52:06;;;;;;;2.40;0.50;;;7.40;77.50;;;;;;5025318;28;20420;-76
2021/04/12 11:55:10;;;;;;;8.38;0.80;;;7.80;76.90;;;;;;5028384;28;20083;-76
2021/04/12 11:57:46;;;;;;;0.93;0.20;;;8.00;79.60;;;;;;5022622;28;20040;-75
2021/04/12 12:00:19;;;;;;;0.60;0.20;;;8.00;68.90;;;;;;5012013;28;20041;-75
2021/04/12 12:03:08;;;;;;;2.10;0.20;;;7.60;65.00;;;;;;5020372;28;20036;-74
2021/04/12 12:06:00;;;;;;;2.00;0.20;;;7.30;66.80;;;;;;5015140;28;20132;-74
2021/04/12 12:08:41;;;;;;;1.30;0.20;;;7.20;65.80;;;;;;5019559;28;20052;-74
2021/04/12 12:11:15;;;;;;;1.03;0.20;;;7.40;63.20;;;;;;5007958;28;20045;-74
2021/04/12 12:13:44;;;;;;;0.40;0.10;;;7.70;63.60;;;;;;5023109;28;20172;-74
2021/04/12 12:16:27;;;;;;;1.73;0.20;;;7.90;59.70;;;;;;5020843;28;20049;-74
2021/04/12 12:19:39;;;;;;;2.30;0.30;;;8.00;59.70;;;;;;5023745;28;20037;-74
2021/04/12 12:22:31;;;;;;;1.90;0.30;;;8.00;61.10;;;;;;4945529;28;20649;-74
2021/04/12 12:25:12;;;;;;;3.97;0.40;;;8.00;60.20;;;;;;5019772;28;20474;-74
2021/04/12 12:27:50;;;;;;;0.80;0.30;;;7.90;59.70;;;;;;5023160;28;20520;-72
2021/04/12 12:30:31;;;;;;;4.13;0.50;;;7.70;61.90;;;;;;5014979;28;20034;-71
2021/04/12 12:33:15;;;;;;;2.45;0.40;;;7.50;63.50;;;;;;5007345;28;20057;-72
2021/04/12 12:35:51;;;;;;;2.13;0.27;;;7.40;68.00;;;;;;5017459;28;20404;-72
2021/04/12 12:38:23;;;;;;;0.77;0.27;;;7.10;69.40;;;;;;5039368;28;20400;-71
2021/04/12 12:40:54;;;;;;;1.47;0.47;;;6.50;70.50;;;;;;5015271;28;20084;-73
2021/04/12 12:43:27;;;;;;;0.50;0.20;;;6.20;73.70;;;;;;5023029;28;20041;-72
2021/04/12 12:46:03;;;;;;;3.57;0.40;;;6.00;75.00;;;;;;5018957;28;20053;-72
2021/04/12 12:48:35;;;;;;;4.30;0.60;;;6.10;75.50;;;;;;5023275;28;20030;-72
2021/04/12 12:51:15;;;;;;;0.60;0.20;;;6.30;75.50;;;;;;5020723;28;20049;-72
2021/04/12 12:53:44;;;;;;;;;;;6.30;72.10;;;;;;5019333;28;20060;-72
2021/04/12 12:56:26;;;;;;;1.57;0.40;;;6.20;72.80;;;;;;5020968;28;19961;-71
2021/04/12 12:58:57;;;;;;;4.30;0.53;;;6.30;72.00;;;;;;5020794;28;20046;-71
2021/04/12 13:01:29;;;;;;;2.20;0.30;;;6.30;72.50;;;;;;5019401;28;20041;-72
2021/04/12 13:04:14;;;;;;;3.07;0.47;;;6.80;75.80;;;;;;5019802;28;20045;-72
2021/04/12 13:06:42;;;;;;;2.47;0.30;;;7.30;75.80;;;;;;4996807;28;20485;-72
2021/04/12 13:09:22;;;;;;;2.03;0.40;;;7.60;68.70;;;;;;4970138;28;20118;-72
2021/04/12 13:11:54;;;;;;;0.98;0.40;;;7.80;67.30;;;;;;5000649;28;20445;-72
2021/04/12 13:14:29;;;;;;;2.80;0.40;;;7.90;66.70;;;;;;4996505;28;20168;-72
2021/04/12 13:16:57;;;;;;;2.07;0.50;;;7.70;63.40;;;;;;5003015;28;20136;-72
2021/04/12 13:19:41;;;;;;;4.33;0.70;;;7.40;67.60;;;;;;5000372;28;20057;-72
2021/04/12 13:22:08;;;;;;;2.30;0.40;;;7.40;69.80;;;;;;5003172;28;20065;-72
2021/04/12 13:24:36;;;;;;;4.97;0.50;;;7.70;71.20;;;;;;4980210;28;20133;-73
2021/04/12 13:27:16;;;;;;;3.37;0.50;;;8.20;72.50;;;;;;5001344;28;20555;-72
2021/04/12 13:30:17;;;;;;;2.88;0.50;;;8.30;68.00;;;;;;4998470;28;20440;-72
2021/04/12 13:33:00;;;;;;;3.50;0.90;;;8.40;67.30;;;;;;4990682;28;20349;-73
2021/04/12 13:35:31;;;;;;;2.30;0.50;;;8.70;72.20;;;;;;5011596;28;20513;-73
2021/04/12 13:38:11;;;;;;;3.17;0.43;;;9.10;72.90;;;;;;4998770;28;20042;-73
2021/04/12 13:40:58;;;;;;;1.50;0.50;;;9.10;70.90;;;;;;5004029;28;20136;-73
2021/04/12 13:43:30;;;;;;;1.60;0.87;;;8.60;66.70;;;;;;4996417;28;20042;-73
2021/04/12 13:46:07;;;;;;;2.30;0.60;;;8.10;66.80;;;;;;4999763;28;20041;-72
2021/04/12 13:48:35;;;;;;;1.37;0.30;;;7.70;67.00;;;;;;4985281;28;20034;-72
2021/04/12 13:51:16;;;;;;;2.53;0.60;;;7.40;67.90;;;;;;4998294;28;20054;-72
2021/04/12 13:53:48;;;;;;;;;;;7.10;68.90;;;;;;4994739;28;20046;-73
2021/04/12 13:56:23;;;;;;;0.90;0.20;;;6.90;68.50;;;;;;5022120;28;19975;-72
2021/04/12 13:59:03;;;;;;;3.43;0.43;;;6.80;67.10;;;;;;5001919;28;20038;-72
2021/04/12 14:01:51;;;;;;;6.53;0.40;;;6.90;69.90;;;;;;4994106;28;20069;-72
2021/04/12 14:04:21;;;;;;;1.40;0.40;;;7.50;69.30;;;;;;4999058;28;20053;-73
2021/04/12 14:07:15;;;;;;;0.75;0.30;;;8.10;69.50;;;;;;5021365;28;20038;-72
2021/04/12 14:10:03;;;;;;;1.90;0.40;;;8.50;67.40;;;;;;5019643;28;20052;-73
2021/04/12 14:12:48;;;;;;;2.43;0.50;;;8.80;67.00;;;;;;5024452;28;20050;-73
2021/04/12 14:15:38;;;;;;;6.47;0.60;;;8.60;65.20;;;;;;5038490;28;20300;-73
2021/04/12 14:18:07;;;;;;;3.07;0.80;;;8.30;62.90;;;;;;5015597;28;20053;-73
2021/04/12 14:20:46;;;;;;;3.73;0.60;;;8.20;63.30;;;;;;5043817;28;20041;-75
2021/04/12 14:23:40;;;;;;;3.73;0.70;;;8.40;66.00;;;;;;5036964;28;20071;-77
2021/04/12 14:26:11;;;;;;;1.53;0.37;;;8.90;64.10;;;;;;5038010;28;20128;-75
2021/04/12 14:28:46;;;;;;;2.20;0.27;;;8.90;60.00;;;;;;5036941;28;20554;-72
2021/04/12 14:31:20;;;;;;;1.97;0.53;;;8.60;59.10;;;;;;5022652;28;20073;-73
2021/04/12 14:33:47;;;;;;;3.37;0.57;;;8.20;58.90;;;;;;5039643;28;20048;-73
2021/04/12 14:36:37;;;;;;;2.93;0.40;;;7.70;58.40;;;;;;5027231;28;20065;-72